Time;durP1;ratioP1;P1;durP2;ratioP2;P2;SDS_P1;SDS_P2;PMS_P1;PMS_P2;Temp;Humidity;BMP_temperature;BMP_pressure;BME280_temperature;BME280_humidity;BME280_pressure;Samples;Min_cycle;Max_cycle;Signal;HPM_P1;HPM_P2
2023/04/29 00:02:17;;;;;;;5.97;3.28;;;;;;;9.06;67.77;99982.28;6247741;28;20084;-71
2023/04/29 00:05:18;;;;;;;6.88;3.15;;;;;;;9.03;68.28;99985.88;6266615;28;20096;-71
2023/04/29 00:08:20;;;;;;;7.93;3.72;;;;;;;9.06;66.37;99985.72;6262450;28;20053;-74
2023/04/29 00:11:20;;;;;;;7.50;3.70;;;;;;;9.10;67.74;99978.59;6270007;28;20048;-74
2023/04/29 00:14:21;;;;;;;6.78;3.70;;;;;;;9.11;66.32;99982.88;6263765;28;20050;-74
2023/04/29 00:17:22;;;;;;;8.82;3.42;;;;;;;9.10;65.85;99982.94;6273425;28;20124;-75
2023/04/29 00:20:23;;;;;;;5.05;3.45;;;;;;;9.07;64.75;99981.34;6252463;28;20045;-75
2023/04/29 00:23:23;;;;;;;4.82;2.70;;;;;;;9.08;63.34;99980.44;6258830;28;20049;-75
2023/04/29 00:26:24;;;;;;;8.65;3.85;;;;;;;9.17;67.66;99985.13;6269767;28;20053;-75
2023/04/29 00:29:26;;;;;;;6.13;3.17;;;;;;;9.24;69.74;99991.63;6272009;28;20048;-75
2023/04/29 00:32:29;;;;;;;6.80;3.78;;;;;;;9.21;69.51;99991.00;6247456;28;20053;-75
2023/04/29 00:35:30;;;;;;;7.40;3.67;;;;;;;9.21;67.26;99983.19;6257050;28;20049;-75
2023/04/29 00:38:31;;;;;;;7.68;3.28;;;;;;;9.24;69.66;99977.78;6266663;28;20107;-75
2023/04/29 00:41:34;;;;;;;9.73;3.67;;;;;;;9.27;71.00;99967.22;6247790;28;20053;-75
2023/04/29 00:44:35;;;;;;;11.32;4.00;;;;;;;9.27;71.03;99975.03;6252601;28;20060;-75
2023/04/29 00:47:37;;;;;;;5.05;3.33;;;;;;;9.26;68.03;99971.56;6270982;28;20390;-75
2023/04/29 00:50:38;;;;;;;10.52;4.07;;;;;;;9.25;69.04;99972.50;6249344;28;20048;-75
2023/04/29 00:53:38;;;;;;;6.60;3.50;;;;;;;9.21;66.74;99968.41;6267250;28;20132;-75
2023/04/29 00:56:42;;;;;;;6.13;3.42;;;;;;;9.18;66.02;99962.53;6270945;28;20055;-75
2023/04/29 00:59:44;;;;;;;9.00;3.67;;;;;;;9.11;65.59;99963.81;6270563;28;20520;-75
2023/04/29 01:02:45;;;;;;;;;;;;;;;9.10;64.52;99962.97;6251907;28;20140;-75
2023/04/29 01:06:08;;;;;;;6.82;2.78;;;;;;;9.03;65.44;99962.47;6264380;28;19927;-75
2023/04/29 01:09:09;;;;;;;;;;;;;;;9.02;65.44;99959.97;6250576;28;20049;-75
2023/04/29 01:12:21;;;;;;;3.95;2.63;;;;;;;9.01;64.33;99968.69;6246987;28;19927;-75
2023/04/29 01:15:29;;;;;;;3.83;2.75;;;;;;;9.00;64.74;99969.63;6247683;28;20061;-75
2023/04/29 01:18:40;;;;;;;8.75;3.25;;;;;;;9.00;64.82;99969.63;6251504;28;20045;-75
2023/04/29 01:21:47;;;;;;;4.75;3.10;;;;;;;9.05;65.41;99962.38;6257711;28;20055;-73
2023/04/29 01:24:48;;;;;;;10.15;4.20;;;;;;;9.01;66.18;99958.28;6258784;28;20060;-75
2023/04/29 01:27:49;;;;;;;5.60;3.53;;;;;;;9.01;66.67;99969.50;6246656;28;20061;-74
2023/04/29 01:30:59;;;;;;;7.72;3.75;;;;;;;8.97;66.68;99961.97;6257699;28;20045;-74
2023/04/29 01:34:13;;;;;;;6.65;4.20;;;;;;;8.94;66.29;99963.00;6271759;28;20048;-74
2023/04/29 01:37:27;;;;;;;6.18;3.65;;;;;;;8.91;66.10;99962.31;6252442;28;20049;-74
2023/04/29 01:40:47;;;;;;;5.80;3.30;;;;;;;8.91;66.12;99960.53;6261144;28;20056;-70
2023/04/29 01:43:51;;;;;;;8.40;3.65;;;;;;;8.90;66.41;99961.47;6255471;28;20524;-71
2023/04/29 01:46:53;;;;;;;4.97;3.47;;;;;;;8.94;67.63;99960.38;6263827;28;20504;-71
2023/04/29 01:49:54;;;;;;;6.75;3.90;;;;;;;8.97;68.29;99959.38;6269464;28;20507;-71
2023/04/29 01:52:54;;;;;;;5.60;3.25;;;;;;;8.96;68.83;99957.69;6265839;28;20055;-70
2023/04/29 01:55:55;;;;;;;7.82;4.00;;;;;;;8.97;68.87;99962.81;6254730;28;20045;-71
2023/04/29 01:58:56;;;;;;;6.60;3.83;;;;;;;8.97;68.91;99962.81;6258072;28;20471;-71
2023/04/29 02:01:59;;;;;;;6.10;3.72;;;;;;;9.02;71.76;99960.78;6253375;28;20077;-70
2023/04/29 02:05:00;;;;;;;11.20;3.92;;;;;;;9.08;74.43;99964.81;6253531;28;20131;-72
2023/04/29 02:08:06;;;;;;;5.88;3.83;;;;;;;9.11;73.88;99961.22;6262123;28;20115;-73
2023/04/29 02:11:07;;;;;;;8.10;3.50;;;;;;;9.11;75.47;99966.41;6246876;28;20053;-72
2023/04/29 02:14:07;;;;;;;9.35;3.40;;;;;;;9.09;71.10;99963.88;6247355;28;20456;-72
2023/04/29 02:17:08;;;;;;;4.80;3.30;;;;;;;9.11;73.31;99969.00;6267600;28;20046;-72
2023/04/29 02:20:09;;;;;;;4.70;2.97;;;;;;;9.09;72.56;99971.69;6270809;28;20052;-72
2023/04/29 02:23:10;;;;;;;6.85;4.28;;;;;;;9.10;69.23;99962.97;6269426;28;20053;-72
2023/04/29 02:26:12;;;;;;;8.07;3.85;;;;;;;9.13;72.30;99970.59;6267934;28;20053;-72
2023/04/29 02:29:13;;;;;;;6.97;4.00;;;;;;;9.11;72.48;99967.25;6259996;28;20136;-71
2023/04/29 02:32:14;;;;;;;7.80;4.05;;;;;;;9.11;69.63;99964.63;6265384;28;20412;-72
2023/04/29 02:35:15;;;;;;;5.50;3.90;;;;;;;9.12;69.47;99957.66;6269209;28;20045;-71
2023/04/29 02:38:18;;;;;;;5.70;3.42;;;;;;;9.15;70.42;99963.53;6269947;28;20060;-73
2023/04/29 02:41:20;;;;;;;5.13;3.28;;;;;;;9.16;73.61;99969.56;6257079;28;20081;-72
2023/04/29 02:44:23;;;;;;;11.05;3.63;;;;;;;9.07;66.30;99969.16;6272429;28;20056;-72
2023/04/29 02:47:26;;;;;;;9.50;3.95;;;;;;;9.10;65.74;99973.38;6250926;28;20045;-71
2023/04/29 02:50:27;;;;;;;5.25;3.17;;;;;;;9.07;65.86;99966.56;6269860;28;20052;-72
2023/04/29 02:53:28;;;;;;;6.63;4.38;;;;;;;9.11;70.00;99971.63;6273071;28;20049;-72
2023/04/29 02:56:31;;;;;;;7.30;3.60;;;;;;;9.15;70.51;99962.72;6267404;28;20136;-72
2023/04/29 02:59:32;;;;;;;5.03;3.40;;;;;;;9.14;71.37;99959.28;6262640;28;20408;-72
2023/04/29 03:02:33;;;;;;;10.27;3.63;;;;;;;9.18;72.62;99955.56;6265640;28;20053;-71
2023/04/29 03:05:34;;;;;;;6.53;4.20;;;;;;;9.13;69.76;99954.16;6250979;28;20046;-71
2023/04/29 03:08:35;;;;;;;7.33;4.23;;;;;;;9.12;75.02;99968.94;6262323;28;20042;-72
2023/04/29 03:11:36;;;;;;;6.90;3.92;;;;;;;9.08;70.20;99959.63;6248591;28;20060;-72
2023/04/29 03:14:37;;;;;;;8.32;4.13;;;;;;;9.07;69.94;99963.97;6260381;28;20106;-71
2023/04/29 03:17:38;;;;;;;5.45;3.97;;;;;;;9.07;72.30;99950.94;6268108;28;20049;-71
2023/04/29 03:20:39;;;;;;;6.60;4.00;;;;;;;9.08;73.49;99960.44;6255132;28;20484;-71
2023/04/29 03:23:39;;;;;;;4.00;2.95;;;;;;;9.05;73.62;99954.56;6261085;28;20049;-71
2023/04/29 03:26:41;;;;;;;6.10;3.38;;;;;;;9.07;72.10;99948.34;6269500;28;20095;-72
2023/04/29 03:29:42;;;;;;;6.88;3.35;;;;;;;9.13;72.77;99954.16;6270384;28;20055;-72
2023/04/29 03:32:43;;;;;;;7.20;3.83;;;;;;;9.13;75.30;99947.16;6271181;28;20053;-71
2023/04/29 03:35:44;;;;;;;8.40;4.35;;;;;;;9.12;77.72;99950.72;6273165;28;20049;-71
2023/04/29 03:38:45;;;;;;;7.38;3.55;;;;;;;9.09;76.63;99945.66;6271011;28;20044;-71
2023/04/29 03:41:46;;;;;;;8.85;3.80;;;;;;;9.08;72.51;99951.81;6272705;28;20053;-71
2023/04/29 03:44:47;;;;;;;4.53;3.05;;;;;;;8.96;72.56;99953.34;6259027;28;20493;-71
2023/04/29 03:47:48;;;;;;;7.65;3.38;;;;;;;8.92;72.83;99948.38;6272300;28;20045;-71
2023/04/29 03:50:49;;;;;;;4.63;3.60;;;;;;;9.02;74.06;99949.56;6270002;28;20056;-71
2023/04/29 03:53:52;;;;;;;8.40;3.65;;;;;;;9.08;75.20;99944.84;6250024;28;20583;-71
2023/04/29 03:56:53;;;;;;;6.35;3.90;;;;;;;9.13;75.56;99944.56;6283913;28;20109;-71
2023/04/29 03:59:54;;;;;;;7.60;3.80;;;;;;;9.18;77.99;99947.75;6267538;28;20070;-71
2023/04/29 04:02:58;;;;;;;14.02;4.63;;;;;;;9.24;78.13;99943.94;6249371;28;20045;-72
2023/04/29 04:06:01;;;;;;;6.70;3.30;;;;;;;9.28;78.08;99954.09;6264355;28;20053;-71
2023/04/29 04:09:02;;;;;;;6.82;3.88;;;;;;;9.28;75.38;99946.28;6260470;28;20045;-71
2023/04/29 04:12:03;;;;;;;6.57;3.75;;;;;;;9.07;71.65;99955.31;6257090;28;20056;-71
2023/04/29 04:15:04;;;;;;;7.93;3.42;;;;;;;8.88;72.02;99956.34;6258954;28;20058;-71
2023/04/29 04:18:05;;;;;;;6.10;4.15;;;;;;;8.96;73.47;99963.75;6257204;28;20049;-71
2023/04/29 04:21:10;;;;;;;6.63;3.83;;;;;;;9.07;73.83;99963.97;6255931;28;20447;-71
2023/04/29 04:24:11;;;;;;;5.20;3.55;;;;;;;9.14;73.90;99958.41;6261522;28;20060;-71
2023/04/29 04:27:14;;;;;;;7.22;4.03;;;;;;;9.21;72.27;99957.16;6249313;28;20042;-71
2023/04/29 04:30:15;;;;;;;6.05;3.95;;;;;;;9.15;69.09;99949.69;6255192;28;20107;-71
2023/04/29 04:33:16;;;;;;;5.10;3.33;;;;;;;9.13;69.32;99947.16;6253824;28;20488;-71
2023/04/29 04:36:17;;;;;;;5.97;3.90;;;;;;;9.16;70.39;99946.16;6256572;28;20057;-71
2023/04/29 04:39:20;;;;;;;4.95;3.13;;;;;;;9.20;68.84;99945.88;6251658;28;20190;-71
2023/04/29 04:42:21;;;;;;;11.32;3.85;;;;;;;9.25;69.38;99949.06;6270998;28;20051;-71
2023/04/29 04:45:22;;;;;;;7.00;4.30;;;;;;;9.27;67.35;99941.19;6270402;28;20402;-71
2023/04/29 04:48:23;;;;;;;5.43;3.58;;;;;;;9.32;68.81;99938.31;6263556;28;20050;-72
2023/04/29 04:51:27;;;;;;;9.32;4.28;;;;;;;9.34;68.44;99944.28;6246569;28;20176;-72
2023/04/29 04:54:30;;;;;;;6.25;3.55;;;;;;;9.32;66.80;99944.34;6260932;28;20053;-72
2023/04/29 04:57:31;;;;;;;6.47;3.90;;;;;;;9.44;65.80;99950.63;6255381;28;20045;-71
2023/04/29 05:00:32;;;;;;;8.13;3.35;;;;;;;9.60;65.63;99950.59;6256155;28;20127;-71
2023/04/29 05:03:35;;;;;;;5.55;3.65;;;;;;;9.61;66.45;99942.66;6264600;28;20487;-71
2023/04/29 05:06:36;;;;;;;7.05;4.20;;;;;;;9.78;65.13;99946.03;6269191;28;20522;-72
2023/04/29 05:09:37;;;;;;;6.85;3.78;;;;;;;9.86;65.38;99949.88;6270823;28;20081;-72
2023/04/29 05:12:40;;;;;;;5.03;3.60;;;;;;;10.01;64.86;99950.72;6261554;28;20501;-71
2023/04/29 05:15:41;;;;;;;6.68;3.47;;;;;;;10.14;63.63;99955.19;6259425;28;20095;-71
2023/04/29 05:18:44;;;;;;;4.72;3.00;;;;;;;10.12;62.99;99955.28;6260574;28;20064;-72
2023/04/29 05:21:45;;;;;;;5.10;2.47;;;;;;;10.22;63.68;99951.19;6271976;28;20139;-71
2023/04/29 05:24:47;;;;;;;5.32;2.63;;;;;;;10.30;64.43;99949.91;6270609;28;20121;-71
2023/04/29 05:27:47;;;;;;;5.32;3.17;;;;;;;10.38;64.55;99953.72;6270009;28;20049;-69
2023/04/29 05:30:52;;;;;;;5.60;3.40;;;;;;;10.47;62.74;99950.53;6263566;28;20045;-69
2023/04/29 05:33:53;;;;;;;8.55;4.00;;;;;;;10.47;64.44;99947.09;6270352;28;20049;-69
2023/04/29 05:36:53;;;;;;;6.05;3.40;;;;;;;10.57;65.38;99949.97;6269183;28;20080;-71
2023/04/29 05:39:54;;;;;;;6.85;4.38;;;;;;;10.67;64.19;99948.47;6254070;28;20057;-71
2023/04/29 05:42:55;;;;;;;7.63;3.95;;;;;;;10.77;62.63;99959.13;6245668;28;20053;-71
2023/04/29 05:45:56;;;;;;;6.25;3.25;;;;;;;10.86;60.94;99958.56;6246507;28;20060;-71
2023/04/29 05:48:56;;;;;;;5.60;3.33;;;;;;;10.99;63.53;99956.84;6246796;28;20053;-71
2023/04/29 05:52:02;;;;;;;3.85;2.67;;;;;;;11.15;64.47;99961.91;6245613;28;20052;-72
2023/04/29 05:55:04;;;;;;;5.05;3.10;;;;;;;11.24;62.61;99968.31;6267688;28;20045;-71
2023/04/29 05:58:04;;;;;;;5.82;3.42;;;;;;;11.37;62.61;99963.97;6269142;28;20049;-72
2023/04/29 06:01:06;;;;;;;8.73;4.18;;;;;;;11.49;63.03;99955.31;6269530;28;20153;-72
2023/04/29 06:04:06;;;;;;;9.63;4.70;;;;;;;11.67;63.97;99953.25;6261840;28;20049;-72
2023/04/29 06:07:11;;;;;;;9.85;4.18;;;;;;;11.80;63.45;99953.28;6246138;28;20085;-72
2023/04/29 06:10:12;;;;;;;10.55;4.03;;;;;;;12.00;63.63;99958.94;6268644;28;20091;-72
2023/04/29 06:13:13;;;;;;;4.70;2.83;;;;;;;12.10;60.66;99960.81;6273453;28;20110;-71
2023/04/29 06:16:14;;;;;;;7.32;3.15;;;;;;;12.21;59.12;99967.06;6275908;28;20128;-72
2023/04/29 06:19:15;;;;;;;4.25;2.95;;;;;;;12.14;56.81;99961.44;6275747;28;20052;-72
2023/04/29 06:22:16;;;;;;;10.32;3.28;;;;;;;12.26;55.93;99963.22;6275955;28;20053;-72
2023/04/29 06:25:19;;;;;;;5.93;3.25;;;;;;;12.25;58.99;99958.94;6275498;28;20060;-72
2023/04/29 06:28:20;;;;;;;4.78;2.75;;;;;;;12.40;56.40;99961.44;6274008;28;20098;-72
2023/04/29 06:31:23;;;;;;;5.38;2.92;;;;;;;12.56;57.61;99955.94;6257512;28;20089;-72
2023/04/29 06:34:24;;;;;;;4.78;2.47;;;;;;;12.75;56.53;99961.53;6248241;28;20053;-72
2023/04/29 06:37:25;;;;;;;4.57;2.88;;;;;;;12.87;58.73;99957.22;6258636;28;21201;-72
2023/04/29 06:40:26;;;;;;;5.97;2.22;;;;;;;12.94;53.97;99955.81;6251608;28;20062;-72
2023/04/29 06:43:27;;;;;;;4.78;2.30;;;;;;;13.01;52.79;99957.06;6249303;28;20215;-72
2023/04/29 06:46:28;;;;;;;4.38;2.40;;;;;;;12.90;51.49;99955.19;6250048;28;20056;-72
2023/04/29 06:49:29;;;;;;;4.47;2.38;;;;;;;13.04;51.43;99953.38;6250277;28;20060;-72
2023/04/29 06:52:32;;;;;;;5.55;2.70;;;;;;;13.16;52.17;99949.84;6250000;28;20049;-72
2023/04/29 06:55:35;;;;;;;3.45;2.35;;;;;;;13.15;53.24;99947.34;6249019;28;20049;-72
2023/04/29 06:58:38;;;;;;;3.95;2.58;;;;;;;13.22;52.68;99940.69;6250064;28;20250;-72
2023/04/29 07:01:41;;;;;;;6.07;3.03;;;;;;;13.39;53.84;99940.31;6249838;28;20045;-72
2023/04/29 07:04:42;;;;;;;2.33;1.83;;;;;;;13.43;53.16;99941.75;6249779;28;20140;-72
2023/04/29 07:07:43;;;;;;;3.05;2.38;;;;;;;13.60;54.11;99937.88;6248511;28;20511;-72
2023/04/29 07:10:53;;;;;;;3.17;2.45;;;;;;;13.66;53.00;99945.25;6249590;28;20153;-72
2023/04/29 07:13:54;;;;;;;3.90;2.45;;;;;;;13.64;53.15;99941.09;6281681;28;20056;-72
2023/04/29 07:16:57;;;;;;;3.58;2.47;;;;;;;13.82;52.72;99941.50;6248680;28;20057;-72
2023/04/29 07:20:01;;;;;;;6.22;2.75;;;;;;;13.97;52.50;99950.78;6249529;28;20049;-72
2023/04/29 07:23:01;;;;;;;4.47;2.63;;;;;;;14.14;52.68;99946.88;6249274;28;20100;-72
2023/04/29 07:26:10;;;;;;;4.25;2.75;;;;;;;14.27;53.84;99947.59;6249305;28;20061;-72
2023/04/29 07:29:11;;;;;;;3.88;2.65;;;;;;;14.30;52.00;99955.22;6249490;28;20045;-76
2023/04/29 07:32:12;;;;;;;5.20;2.67;;;;;;;14.45;52.22;99950.53;6249331;28;20054;-72
2023/04/29 07:35:13;;;;;;;4.43;2.33;;;;;;;14.45;50.71;99952.34;6248206;28;20119;-72
2023/04/29 07:38:13;;;;;;;4.57;2.65;;;;;;;14.63;52.16;99955.34;6249027;28;20057;-72
2023/04/29 07:41:14;;;;;;;3.25;2.05;;;;;;;14.69;51.52;99949.59;6248782;28;20060;-72
2023/04/29 07:44:15;;;;;;;10.27;2.60;;;;;;;14.77;51.41;99957.72;6250119;28;20049;-72
2023/04/29 07:47:17;;;;;;;6.25;2.45;;;;;;;14.87;51.04;99952.56;6247967;28;20053;-76
2023/04/29 07:50:18;;;;;;;3.90;2.33;;;;;;;14.84;49.72;99953.63;6248833;28;20048;-77
2023/04/29 07:53:19;;;;;;;5.95;2.45;;;;;;;14.86;50.49;99969.25;6250347;28;20128;-77
2023/04/29 07:56:20;;;;;;;6.15;2.30;;;;;;;14.91;47.18;99964.50;6249130;28;20409;-77
2023/04/29 07:59:21;;;;;;;2.90;2.23;;;;;;;14.86;48.70;99964.84;6248797;28;20057;-77
2023/04/29 08:02:22;;;;;;;8.88;2.35;;;;;;;14.81;50.08;99963.56;6248297;28;20365;-72
2023/04/29 08:05:23;;;;;;;3.45;2.60;;;;;;;14.74;48.53;99965.00;6247442;28;20057;-77
2023/04/29 08:08:24;;;;;;;6.13;2.40;;;;;;;14.89;49.44;99971.66;6249649;28;20052;-76
2023/04/29 08:11:25;;;;;;;3.90;2.08;;;;;;;15.03;49.62;99974.00;6248351;28;20405;-77
2023/04/29 08:14:26;;;;;;;4.78;2.50;;;;;;;15.21;49.84;99981.34;6248925;28;20061;-72
2023/04/29 08:17:27;;;;;;;3.67;2.30;;;;;;;14.89;46.33;99971.66;6247031;28;20081;-72
2023/04/29 08:20:29;;;;;;;4.70;2.60;;;;;;;15.18;47.19;99976.34;6246859;28;20103;-72
2023/04/29 08:23:30;;;;;;;3.35;2.20;;;;;;;15.40;49.39;99967.50;6247417;28;20053;-76
2023/04/29 08:26:31;;;;;;;4.45;2.38;;;;;;;15.72;48.78;99975.41;6247258;28;20404;-72
2023/04/29 08:29:33;;;;;;;7.63;2.60;;;;;;;15.79;48.98;99967.81;6280006;28;20050;-72
2023/04/29 08:32:34;;;;;;;3.40;2.30;;;;;;;15.84;48.13;99963.84;6246504;28;20542;-73
2023/04/29 08:35:37;;;;;;;4.82;2.30;;;;;;;16.17;47.46;99971.63;6247000;28;20054;-71
2023/04/29 08:38:38;;;;;;;4.15;2.60;;;;;;;16.26;46.93;99971.66;6247651;28;20084;-71
2023/04/29 08:41:39;;;;;;;4.70;2.28;;;;;;;16.36;45.49;99965.63;6247302;28;20060;-73
2023/04/29 08:44:40;;;;;;;2.45;2.08;;;;;;;16.67;43.47;99964.59;6246404;28;20049;-72
2023/04/29 08:47:42;;;;;;;5.45;2.50;;;;;;;16.68;43.82;99970.72;6247268;28;20096;-71
2023/04/29 08:50:45;;;;;;;4.60;2.40;;;;;;;16.82;42.38;99973.00;6247263;28;20478;-72
2023/04/29 08:53:48;;;;;;;6.40;2.85;;;;;;;16.93;44.89;99969.41;6247248;28;20123;-71
2023/04/29 08:56:50;;;;;;;3.10;1.98;;;;;;;17.31;40.37;99967.75;6247447;28;20136;-71
2023/04/29 08:59:52;;;;;;;2.95;1.80;;;;;;;17.43;42.11;99960.53;6247030;28;20479;-71
2023/04/29 09:02:55;;;;;;;7.93;1.87;;;;;;;17.44;42.77;99965.69;6247375;28;20049;-72
2023/04/29 09:06:00;;;;;;;4.25;1.98;;;;;;;17.37;41.37;99959.28;6245931;28;20056;-72
2023/04/29 09:09:02;;;;;;;2.00;1.65;;;;;;;17.29;40.64;99959.16;6245624;28;20452;-71
2023/04/29 09:12:03;;;;;;;;;;;;;;;17.92;42.16;99958.69;6246358;28;20050;-73
2023/04/29 09:15:05;;;;;;;5.35;1.90;;;;;;;18.23;39.32;99964.53;6246943;28;19928;-71
2023/04/29 09:18:05;;;;;;;3.08;1.70;;;;;;;18.01;37.92;99965.72;6246965;28;20053;-72
2023/04/29 09:21:13;;;;;;;2.00;1.60;;;;;;;18.01;38.03;99965.72;6245852;28;20057;-72
2023/04/29 09:24:25;;;;;;;4.45;2.00;;;;;;;17.28;38.33;99955.69;6245747;28;20060;-72
2023/04/29 09:27:29;;;;;;;2.20;1.55;;;;;;;17.62;37.73;99954.41;6245517;28;20501;-72
2023/04/29 09:30:44;;;;;;;5.28;1.77;;;;;;;17.80;39.03;99951.88;6246426;28;20481;-72
2023/04/29 09:33:53;;;;;;;3.63;2.00;;;;;;;18.75;41.04;99961.34;6246611;28;20053;-71
2023/04/29 09:36:57;;;;;;;3.60;1.80;;;;;;;19.24;39.91;99961.88;6245591;28;20049;-72
2023/04/29 09:39:58;;;;;;;4.00;2.03;;;;;;;18.12;36.98;99947.09;6246531;28;20060;-72
2023/04/29 09:43:00;;;;;;;3.63;1.88;;;;;;;18.29;42.88;99955.22;6245736;28;20053;-72
2023/04/29 09:46:03;;;;;;;7.55;1.88;;;;;;;18.63;37.26;99946.69;6248345;28;20142;-72
2023/04/29 09:49:31;;;;;;;3.50;1.73;;;;;;;18.68;36.14;99937.34;6250435;28;20553;-72
2023/04/29 09:52:41;;;;;;;4.85;1.92;;;;;;;18.62;38.02;99943.22;6251446;28;20417;-73
2023/04/29 09:55:59;;;;;;;3.72;1.75;;;;;;;19.07;36.29;99939.75;6251492;28;20508;-73
2023/04/29 09:59:08;;;;;;;3.13;2.17;;;;;;;19.16;36.26;99930.06;6283514;28;20140;-74
2023/04/29 10:02:14;;;;;;;4.93;2.05;;;;;;;19.49;37.11;99927.69;6251256;28;20412;-71
2023/04/29 10:05:15;;;;;;;5.10;1.95;;;;;;;19.73;37.79;99932.38;6250283;28;20053;-73
2023/04/29 10:08:20;;;;;;;2.47;1.38;;;;;;;19.83;38.23;99926.94;6251194;28;20492;-72
2023/04/29 10:11:21;;;;;;;4.30;2.00;;;;;;;19.43;36.89;99921.19;6249870;28;20041;-75
2023/04/29 10:14:23;;;;;;;3.40;1.90;;;;;;;19.44;39.26;99911.47;6250002;28;20085;-73
2023/04/29 10:17:57;;;;;;;2.88;1.75;;;;;;;19.68;36.99;99924.00;6283005;28;20079;-73
2023/04/29 10:21:01;;;;;;;3.40;1.83;;;;;;;19.54;36.88;99920.13;6250804;28;20058;-74
2023/04/29 10:24:03;;;;;;;2.35;1.70;;;;;;;19.82;35.50;99922.66;6251027;28;20073;-73
2023/04/29 10:27:12;;;;;;;3.63;1.83;;;;;;;19.70;37.32;99917.59;6249665;28;20053;-74
2023/04/29 10:30:15;;;;;;;3.65;2.00;;;;;;;19.52;34.34;99907.06;6250535;28;20107;-73
2023/04/29 10:33:19;;;;;;;2.38;1.77;;;;;;;20.16;35.37;99914.72;6250579;28;20482;-73
2023/04/29 10:36:21;;;;;;;6.68;1.70;;;;;;;20.02;36.53;99902.06;6250414;28;20057;-73
2023/04/29 10:39:35;;;;;;;3.20;1.70;;;;;;;20.08;36.15;99906.75;6248911;28;20409;-73
2023/04/29 10:42:45;;;;;;;3.15;1.88;;;;;;;19.78;35.21;99903.59;6249194;28;20049;-73
2023/04/29 10:45:46;;;;;;;5.70;1.83;;;;;;;19.42;37.38;99895.72;6249264;28;20056;-73
2023/04/29 10:48:49;;;;;;;11.03;1.93;;;;;;;20.07;37.03;99890.00;6248988;28;20139;-73
2023/04/29 10:51:50;;;;;;;2.75;1.58;;;;;;;20.25;36.36;99897.03;6250156;28;20103;-73
2023/04/29 10:55:03;;;;;;;3.07;1.53;;;;;;;20.30;35.36;99897.38;6250181;28;20056;-73
2023/04/29 10:58:05;;;;;;;3.75;1.80;;;;;;;20.63;37.65;99900.13;6249312;28;20497;-73
2023/04/29 11:01:09;;;;;;;;;;;;;;;20.74;36.79;99894.53;6249137;28;20077;-73
2023/04/29 11:04:11;;;;;;;2.70;1.33;;;;;;;21.05;33.60;99886.78;6250052;28;20011;-73
2023/04/29 11:07:27;;;;;;;3.53;1.63;;;;;;;21.41;34.21;99885.59;6248623;28;20136;-72
2023/04/29 11:10:40;;;;;;;2.05;1.65;;;;;;;21.47;33.99;99880.47;6248584;28;20049;-73
2023/04/29 11:13:47;;;;;;;4.00;1.77;;;;;;;21.60;32.73;99882.63;6248428;28;20059;-73
2023/04/29 11:17:01;;;;;;;2.20;1.65;;;;;;;21.33;32.89;99883.78;6248725;28;20053;-73
2023/04/29 11:20:03;;;;;;;2.83;1.90;;;;;;;21.21;33.17;99877.16;6248237;28;20057;-73
2023/04/29 11:23:04;;;;;;;5.72;2.10;;;;;;;20.86;36.29;99874.69;6249663;28;20053;-73
2023/04/29 11:26:05;;;;;;;4.03;1.45;;;;;;;21.44;33.41;99869.38;6249550;28;20050;-73
2023/04/29 11:29:10;;;;;;;2.25;1.60;;;;;;;21.04;33.91;99873.69;6249409;28;20054;-73
2023/04/29 11:32:11;;;;;;;2.78;1.70;;;;;;;20.68;32.86;99866.88;6247956;28;20050;-73
2023/04/29 11:35:14;;;;;;;3.63;1.70;;;;;;;20.04;35.33;99863.03;6248157;28;20060;-73
2023/04/29 11:38:15;;;;;;;4.50;2.28;;;;;;;20.32;34.97;99856.50;6248944;28;20494;-73
2023/04/29 11:41:16;;;;;;;1.83;1.40;;;;;;;20.95;34.15;99862.25;6248898;28;20465;-74
2023/04/29 11:44:21;;;;;;;3.88;2.08;;;;;;;21.39;34.48;99867.19;6249099;28;20666;-73
2023/04/29 11:47:27;;;;;;;2.15;1.58;;;;;;;21.14;33.12;99853.13;6249261;28;20106;-73
2023/04/29 11:50:31;;;;;;;2.97;1.65;;;;;;;21.27;35.00;99852.59;6247643;28;20124;-73
2023/04/29 11:53:33;;;;;;;2.38;1.67;;;;;;;21.55;35.02;99849.63;6248807;28;20049;-73
2023/04/29 11:56:36;;;;;;;3.28;1.90;;;;;;;21.64;35.73;99844.13;6247640;28;20046;-74
2023/04/29 11:59:38;;;;;;;8.57;1.65;;;;;;;21.66;34.40;99850.09;6248556;28;20465;-74
2023/04/29 12:02:39;;;;;;;2.77;1.33;;;;;;;21.62;32.99;99835.50;6248559;28;20076;-73
2023/04/29 12:05:52;;;;;;;1.63;1.25;;;;;;;21.64;35.89;99838.81;6247244;28;20136;-74
2023/04/29 12:08:53;;;;;;;2.88;1.33;;;;;;;22.26;32.58;99831.94;6279544;28;20060;-72
2023/04/29 12:11:54;;;;;;;1.70;1.47;;;;;;;22.29;32.28;99828.91;6246916;28;20413;-74
2023/04/29 12:15:01;;;;;;;4.87;1.70;;;;;;;22.41;34.10;99832.84;6247290;28;20053;-74
2023/04/29 12:18:03;;;;;;;2.50;1.48;;;;;;;22.76;31.99;99835.09;6248184;28;20049;-74
2023/04/29 12:21:04;;;;;;;3.03;1.58;;;;;;;22.66;31.66;99822.03;6247091;28;20049;-74
2023/04/29 12:24:08;;;;;;;2.65;1.55;;;;;;;22.32;32.76;99823.25;6247967;28;20046;-74
2023/04/29 12:27:13;;;;;;;1.52;1.30;;;;;;;22.16;33.15;99823.34;6248002;28;20461;-73
2023/04/29 12:30:16;;;;;;;6.53;1.65;;;;;;;21.06;31.48;99813.34;6246801;28;20136;-73
2023/04/29 12:33:28;;;;;;;3.13;1.33;;;;;;;21.77;33.61;99817.03;6247998;28;20054;-73
2023/04/29 12:36:28;;;;;;;3.20;1.90;;;;;;;22.34;35.78;99802.63;6246539;28;20084;-73
2023/04/29 12:39:33;;;;;;;4.33;1.53;;;;;;;22.59;33.55;99808.63;6246489;28;20515;-73
2023/04/29 12:42:34;;;;;;;2.20;1.50;;;;;;;22.54;33.11;99803.00;6246484;28;20111;-74
2023/04/29 12:45:37;;;;;;;2.97;1.67;;;;;;;22.63;32.91;99795.78;6246321;28;20100;-74
2023/04/29 12:48:42;;;;;;;5.35;1.40;;;;;;;22.18;31.72;99795.56;6246417;28;20054;-74
2023/04/29 12:51:46;;;;;;;2.13;1.52;;;;;;;22.33;32.96;99795.69;6279165;28;20045;-73
2023/04/29 12:54:49;;;;;;;1.40;1.30;;;;;;;21.67;32.66;99782.69;6247577;28;20132;-73
2023/04/29 12:57:49;;;;;;;2.42;1.33;;;;;;;21.47;33.37;99781.44;6247263;28;20055;-71
2023/04/29 13:00:50;;;;;;;13.60;4.40;;;;;;;21.56;32.33;99783.09;6246176;28;20041;-71
2023/04/29 13:03:51;;;;;;;3.03;2.13;;;;;;;21.61;35.37;99769.28;6246085;28;20045;-71
2023/04/29 13:06:59;;;;;;;3.60;1.83;;;;;;;21.87;34.89;99772.50;6245889;28;20057;-72
2023/04/29 13:10:00;;;;;;;2.88;1.33;;;;;;;21.88;34.13;99771.47;6246966;28;20088;-73
2023/04/29 13:13:01;;;;;;;1.95;1.48;;;;;;;21.68;34.52;99768.44;6247271;28;20053;-71
2023/04/29 13:16:05;;;;;;;5.28;1.63;;;;;;;20.68;34.08;99758.19;6246827;28;20405;-73
2023/04/29 13:19:08;;;;;;;2.75;1.50;;;;;;;20.70;35.30;99752.72;6245585;28;20425;-74
2023/04/29 13:22:10;;;;;;;2.83;1.65;;;;;;;20.64;35.14;99756.03;6246452;28;20417;-73
2023/04/29 13:25:15;;;;;;;2.38;1.50;;;;;;;21.15;33.24;99756.63;6246807;28;20136;-73
2023/04/29 13:28:16;;;;;;;3.75;1.45;;;;;;;21.14;33.99;99752.31;6245740;28;20049;-73
2023/04/29 13:31:17;;;;;;;2.03;1.50;;;;;;;20.93;35.41;99763.47;6246476;28;20045;-73
2023/04/29 13:34:19;;;;;;;3.90;1.83;;;;;;;20.82;34.00;99761.16;6246788;28;20057;-73
2023/04/29 13:37:22;;;;;;;;;;;;;;;20.06;34.65;99757.75;6279078;28;20049;-73
2023/04/29 13:40:23;;;;;;;4.15;1.60;;;;;;;20.44;34.76;99747.53;6245164;28;19972;-73
2023/04/29 13:43:25;;;;;;;3.42;1.50;;;;;;;20.74;36.38;99746.09;6246459;28;20050;-73
2023/04/29 13:46:27;;;;;;;3.03;1.83;;;;;;;20.83;35.12;99744.25;6246768;28;20060;-73
2023/04/29 13:49:28;;;;;;;2.95;1.80;;;;;;;20.09;36.56;99745.00;6246421;28;20053;-73
2023/04/29 13:52:30;;;;;;;5.75;2.70;;;;;;;19.49;36.08;99740.66;6245580;28;20132;-74
2023/04/29 13:55:33;;;;;;;4.10;2.53;;;;;;;20.23;36.94;99735.59;6245238;28;20420;-71
2023/04/29 13:58:35;;;;;;;5.45;2.70;;;;;;;20.42;36.32;99738.94;6246235;28;20140;-71
2023/04/29 14:01:38;;;;;;;5.90;2.13;;;;;;;20.34;36.43;99731.78;6246347;28;20477;-72
2023/04/29 14:04:39;;;;;;;2.60;2.00;;;;;;;20.63;35.62;99734.00;6245058;28;20049;-72
2023/04/29 14:07:42;;;;;;;3.80;2.00;;;;;;;20.72;35.28;99738.28;6245296;28;20516;-71
2023/04/29 14:10:43;;;;;;;2.78;1.65;;;;;;;20.65;34.92;99725.88;6246102;28;20045;-73
2023/04/29 14:13:46;;;;;;;4.07;2.30;;;;;;;20.27;36.63;99726.31;6246344;28;20151;-73
2023/04/29 14:16:47;;;;;;;3.97;1.92;;;;;;;20.62;36.67;99731.50;6245007;28;20129;-73
2023/04/29 14:19:48;;;;;;;3.60;1.85;;;;;;;20.29;36.56;99729.66;6245159;28;20050;-74
2023/04/29 14:22:51;;;;;;;1.93;1.57;;;;;;;20.09;36.94;99715.88;6246076;28;20049;-73
2023/04/29 14:25:52;;;;;;;3.50;1.83;;;;;;;20.01;37.00;99722.97;6246292;28;20049;-73